sensor_id;sensor_type;location;lat;lon;timestamp;temperature;humidity
2487;DHT22;1254;49.144;8.212;2022-10-31T00:01:39;11.30;99.90
2487;DHT22;1254;49.144;8.212;2022-10-31T00:04:07;11.30;99.90
2487;DHT22;1254;49.144;8.212;2022-10-31T00:06:35;11.20;99.90
2487;DHT22;1254;49.144;8.212;2022-10-31T00:09:04;11.20;99.90
2487;DHT22;1254;49.144;8.212;2022-10-31T00:11:32;11.10;99.90
2487;DHT22;1254;49.144;8.212;2022-10-31T00:14:02;11.10;99.90
2487;DHT22;1254;49.144;8.212;2022-10-31T00:16:30;11.00;99.90
2487;DHT22;1254;49.144;8.212;2022-10-31T00:19:00;10.90;99.90
2487;DHT22;1254;49.144;8.212;2022-10-31T00:21:29;11.00;99.90
2487;DHT22;1254;49.144;8.212;2022-10-31T00:23:58;11.00;99.90
2487;DHT22;1254;49.144;8.212;2022-10-31T00:26:27;11.00;99.90
2487;DHT22;1254;49.144;8.212;2022-10-31T00:28:55;11.10;99.90
2487;DHT22;1254;49.144;8.212;2022-10-31T00:31:25;11.20;99.90
2487;DHT22;1254;49.144;8.212;2022-10-31T00:33:53;11.20;99.90
2487;DHT22;1254;49.144;8.212;2022-10-31T00:36:21;11.20;99.90
2487;DHT22;1254;49.144;8.212;2022-10-31T00:38:49;11.30;99.90
2487;DHT22;1254;49.144;8.212;2022-10-31T00:41:18;11.30;99.90
2487;DHT22;1254;49.144;8.212;2022-10-31T00:43:46;11.40;99.90
2487;DHT22;1254;49.144;8.212;2022-10-31T00:46:14;11.40;99.90
2487;DHT22;1254;49.144;8.212;2022-10-31T00:48:43;11.40;99.90
2487;DHT22;1254;49.144;8.212;2022-10-31T00:51:12;11.40;99.90
2487;DHT22;1254;49.144;8.212;2022-10-31T00:53:42;11.40;99.90
2487;DHT22;1254;49.144;8.212;2022-10-31T00:56:10;11.40;99.90
2487;DHT22;1254;49.144;8.212;2022-10-31T00:58:38;11.40;99.90
2487;DHT22;1254;49.144;8.212;2022-10-31T01:01:07;11.40;99.90
2487;DHT22;1254;49.144;8.212;2022-10-31T01:03:35;11.40;99.90
2487;DHT22;1254;49.144;8.212;2022-10-31T01:06:13;11.40;99.90
2487;DHT22;1254;49.144;8.212;2022-10-31T01:08:42;11.40;99.90
2487;DHT22;1254;49.144;8.212;2022-10-31T01:11:15;11.30;99.90
2487;DHT22;1254;49.144;8.212;2022-10-31T01:13:44;11.30;99.90
2487;DHT22;1254;49.144;8.212;2022-10-31T01:16:13;11.30;99.90
2487;DHT22;1254;49.144;8.212;2022-10-31T01:18:42;11.30;99.90
2487;DHT22;1254;49.144;8.212;2022-10-31T01:21:13;11.30;99.90
2487;DHT22;1254;49.144;8.212;2022-10-31T01:23:42;11.30;99.90
2487;DHT22;1254;49.144;8.212;2022-10-31T01:26:15;11.30;99.90
2487;DHT22;1254;49.144;8.212;2022-10-31T01:28:46;11.30;99.90
2487;DHT22;1254;49.144;8.212;2022-10-31T01:31:15;11.30;99.90
2487;DHT22;1254;49.144;8.212;2022-10-31T01:33:44;11.20;99.90
2487;DHT22;1254;49.144;8.212;2022-10-31T01:36:16;11.20;99.90
2487;DHT22;1254;49.144;8.212;2022-10-31T01:38:45;11.20;99.90
2487;DHT22;1254;49.144;8.212;2022-10-31T01:41:15;11.20;99.90
2487;DHT22;1254;49.144;8.212;2022-10-31T01:43:45;11.20;99.90
2487;DHT22;1254;49.144;8.212;2022-10-31T01:46:16;11.20;99.90
2487;DHT22;1254;49.144;8.212;2022-10-31T01:48:45;11.20;99.90
2487;DHT22;1254;49.144;8.212;2022-10-31T01:51:17;11.20;99.90
2487;DHT22;1254;49.144;8.212;2022-10-31T01:53:46;11.10;99.90
2487;DHT22;1254;49.144;8.212;2022-10-31T01:56:15;11.20;99.90
2487;DHT22;1254;49.144;8.212;2022-10-31T01:58:45;11.20;99.90
2487;DHT22;1254;49.144;8.212;2022-10-31T02:01:17;11.20;99.90
2487;DHT22;1254;49.144;8.212;2022-10-31T02:03:46;11.20;99.90
2487;DHT22;1254;49.144;8.212;2022-10-31T02:06:21;11.20;99.90
2487;DHT22;1254;49.144;8.212;2022-10-31T02:08:55;11.20;99.90
2487;DHT22;1254;49.144;8.212;2022-10-31T02:11:25;11.10;99.90
2487;DHT22;1254;49.144;8.212;2022-10-31T02:13:54;11.10;99.90
2487;DHT22;1254;49.144;8.212;2022-10-31T02:16:23;11.10;99.90
2487;DHT22;1254;49.144;8.212;2022-10-31T02:18:53;11.10;99.90
2487;DHT22;1254;49.144;8.212;2022-10-31T02:21:28;11.00;99.90
2487;DHT22;1254;49.144;8.212;2022-10-31T02:24:14;10.90;99.90
2487;DHT22;1254;49.144;8.212;2022-10-31T02:26:57;10.90;99.90
2487;DHT22;1254;49.144;8.212;2022-10-31T02:29:57;10.90;99.90
2487;DHT22;1254;49.144;8.212;2022-10-31T02:32:36;10.80;99.90
2487;DHT22;1254;49.144;8.212;2022-10-31T02:35:13;10.90;99.90
2487;DHT22;1254;49.144;8.212;2022-10-31T02:37:48;10.80;99.90
2487;DHT22;1254;49.144;8.212;2022-10-31T02:40:23;10.70;99.90
2487;DHT22;1254;49.144;8.212;2022-10-31T02:43:25;10.70;99.90
2487;DHT22;1254;49.144;8.212;2022-10-31T02:45:58;10.70;99.90
2487;DHT22;1254;49.144;8.212;2022-10-31T02:48:35;10.70;99.90
2487;DHT22;1254;49.144;8.212;2022-10-31T02:51:06;10.60;99.90
2487;DHT22;1254;49.144;8.212;2022-10-31T02:53:37;10.70;99.90
2487;DHT22;1254;49.144;8.212;2022-10-31T02:56:11;10.70;99.90
2487;DHT22;1254;49.144;8.212;2022-10-31T02:58:44;10.70;99.90
2487;DHT22;1254;49.144;8.212;2022-10-31T03:01:33;10.70;99.90
2487;DHT22;1254;49.144;8.212;2022-10-31T03:07:31;10.60;99.90
2487;DHT22;1254;49.144;8.212;2022-10-31T03:10:08;10.60;99.90
2487;DHT22;1254;49.144;8.212;2022-10-31T03:12:46;10.60;99.90
2487;DHT22;1254;49.144;8.212;2022-10-31T03:15:21;10.60;99.90
2487;DHT22;1254;49.144;8.212;2022-10-31T03:17:56;10.60;99.90
2487;DHT22;1254;49.144;8.212;2022-10-31T03:20:29;10.60;99.90
2487;DHT22;1254;49.144;8.212;2022-10-31T03:23:01;10.60;99.90
2487;DHT22;1254;49.144;8.212;2022-10-31T03:25:30;10.60;99.90
2487;DHT22;1254;49.144;8.212;2022-10-31T03:28:01;10.60;99.90
2487;DHT22;1254;49.144;8.212;2022-10-31T03:30:31;10.60;99.90
2487;DHT22;1254;49.144;8.212;2022-10-31T03:33:03;10.60;99.90
2487;DHT22;1254;49.144;8.212;2022-10-31T03:35:35;10.60;99.90
2487;DHT22;1254;49.144;8.212;2022-10-31T03:38:05;10.50;99.90
2487;DHT22;1254;49.144;8.212;2022-10-31T03:40:36;10.50;99.90
2487;DHT22;1254;49.144;8.212;2022-10-31T03:43:07;10.50;99.90
2487;DHT22;1254;49.144;8.212;2022-10-31T03:45:43;10.50;99.90
2487;DHT22;1254;49.144;8.212;2022-10-31T03:48:13;10.40;99.90
2487;DHT22;1254;49.144;8.212;2022-10-31T03:50:49;10.30;99.90
2487;DHT22;1254;49.144;8.212;2022-10-31T03:53:25;10.30;99.90
2487;DHT22;1254;49.144;8.212;2022-10-31T03:55:59;10.20;99.90
2487;DHT22;1254;49.144;8.212;2022-10-31T03:58:33;10.10;99.90
2487;DHT22;1254;49.144;8.212;2022-10-31T04:01:06;10.10;99.90
2487;DHT22;1254;49.144;8.212;2022-10-31T04:03:39;10.00;99.90
2487;DHT22;1254;49.144;8.212;2022-10-31T04:06:11;10.10;99.90
2487;DHT22;1254;49.144;8.212;2022-10-31T04:08:45;10.00;99.90
2487;DHT22;1254;49.144;8.212;2022-10-31T04:11:20;10.00;99.90
2487;DHT22;1254;49.144;8.212;2022-10-31T04:14:06;10.00;99.90
2487;DHT22;1254;49.144;8.212;2022-10-31T04:16:36;10.00;99.90
2487;DHT22;1254;49.144;8.212;2022-10-31T04:19:04;9.90;99.90
2487;DHT22;1254;49.144;8.212;2022-10-31T04:21:33;9.90;99.90
2487;DHT22;1254;49.144;8.212;2022-10-31T04:24:06;9.90;99.90
2487;DHT22;1254;49.144;8.212;2022-10-31T04:26:34;9.90;99.90
2487;DHT22;1254;49.144;8.212;2022-10-31T04:29:02;9.90;99.90
2487;DHT22;1254;49.144;8.212;2022-10-31T04:31:31;9.80;99.90
2487;DHT22;1254;49.144;8.212;2022-10-31T04:33:59;9.80;99.90
2487;DHT22;1254;49.144;8.212;2022-10-31T04:36:27;9.80;99.90
2487;DHT22;1254;49.144;8.212;2022-10-31T04:38:55;9.80;99.90
2487;DHT22;1254;49.144;8.212;2022-10-31T04:41:39;9.70;99.90
2487;DHT22;1254;49.144;8.212;2022-10-31T04:44:15;9.70;99.90
2487;DHT22;1254;49.144;8.212;2022-10-31T04:46:43;9.70;99.90
2487;DHT22;1254;49.144;8.212;2022-10-31T04:49:12;9.70;99.90
2487;DHT22;1254;49.144;8.212;2022-10-31T04:51:40;9.70;99.90
2487;DHT22;1254;49.144;8.212;2022-10-31T04:54:10;9.80;99.90
2487;DHT22;1254;49.144;8.212;2022-10-31T04:56:58;9.80;99.90
2487;DHT22;1254;49.144;8.212;2022-10-31T04:59:27;9.90;99.90
2487;DHT22;1254;49.144;8.212;2022-10-31T05:01:55;10.00;99.90
2487;DHT22;1254;49.144;8.212;2022-10-31T05:04:35;10.00;99.90
2487;DHT22;1254;49.144;8.212;2022-10-31T05:07:05;10.00;99.90
2487;DHT22;1254;49.144;8.212;2022-10-31T05:09:33;10.00;99.90
2487;DHT22;1254;49.144;8.212;2022-10-31T05:12:03;10.00;99.90
2487;DHT22;1254;49.144;8.212;2022-10-31T05:14:49;10.10;99.90
2487;DHT22;1254;49.144;8.212;2022-10-31T05:17:36;10.20;99.90
2487;DHT22;1254;49.144;8.212;2022-10-31T05:20:28;10.20;99.90
2487;DHT22;1254;49.144;8.212;2022-10-31T05:23:23;10.10;99.90
2487;DHT22;1254;49.144;8.212;2022-10-31T05:25:51;9.90;99.90
2487;DHT22;1254;49.144;8.212;2022-10-31T05:28:21;9.90;99.90
2487;DHT22;1254;49.144;8.212;2022-10-31T05:30:49;9.80;99.90
2487;DHT22;1254;49.144;8.212;2022-10-31T05:33:17;9.70;99.90
2487;DHT22;1254;49.144;8.212;2022-10-31T05:36:04;9.60;99.90
2487;DHT22;1254;49.144;8.212;2022-10-31T05:38:45;9.60;99.90
2487;DHT22;1254;49.144;8.212;2022-10-31T05:41:22;9.60;99.90
2487;DHT22;1254;49.144;8.212;2022-10-31T05:43:51;9.60;99.90
2487;DHT22;1254;49.144;8.212;2022-10-31T05:46:24;9.60;99.90
2487;DHT22;1254;49.144;8.212;2022-10-31T05:49:30;9.60;99.90
2487;DHT22;1254;49.144;8.212;2022-10-31T05:52:17;9.70;99.90
2487;DHT22;1254;49.144;8.212;2022-10-31T05:54:53;9.70;99.90
2487;DHT22;1254;49.144;8.212;2022-10-31T05:57:22;9.70;99.90
2487;DHT22;1254;49.144;8.212;2022-10-31T05:59:51;9.70;99.90
2487;DHT22;1254;49.144;8.212;2022-10-31T06:02:20;9.70;99.90
2487;DHT22;1254;49.144;8.212;2022-10-31T06:05:18;9.70;99.90
2487;DHT22;1254;49.144;8.212;2022-10-31T06:07:47;9.70;99.90
2487;DHT22;1254;49.144;8.212;2022-10-31T06:10:15;9.70;99.90
2487;DHT22;1254;49.144;8.212;2022-10-31T06:12:44;9.70;99.90
2487;DHT22;1254;49.144;8.212;2022-10-31T06:15:41;9.70;99.90
2487;DHT22;1254;49.144;8.212;2022-10-31T06:18:09;9.70;99.90
2487;DHT22;1254;49.144;8.212;2022-10-31T06:20:46;9.60;99.90
2487;DHT22;1254;49.144;8.212;2022-10-31T06:23:14;9.60;99.90
2487;DHT22;1254;49.144;8.212;2022-10-31T06:25:48;9.60;99.90
2487;DHT22;1254;49.144;8.212;2022-10-31T06:28:17;9.70;99.90
2487;DHT22;1254;49.144;8.212;2022-10-31T06:31:01;9.70;99.90
2487;DHT22;1254;49.144;8.212;2022-10-31T06:33:31;9.80;99.90
2487;DHT22;1254;49.144;8.212;2022-10-31T06:36:01;9.80;99.90
2487;DHT22;1254;49.144;8.212;2022-10-31T06:38:29;9.90;99.90
2487;DHT22;1254;49.144;8.212;2022-10-31T06:41:02;10.00;99.90
2487;DHT22;1254;49.144;8.212;2022-10-31T06:43:38;10.00;99.90
2487;DHT22;1254;49.144;8.212;2022-10-31T06:46:26;10.10;99.90
2487;DHT22;1254;49.144;8.212;2022-10-31T06:49:27;10.20;99.90
2487;DHT22;1254;49.144;8.212;2022-10-31T06:52:00;10.20;99.90
2487;DHT22;1254;49.144;8.212;2022-10-31T06:54:28;10.30;99.90
2487;DHT22;1254;49.144;8.212;2022-10-31T06:56:57;10.30;99.90
2487;DHT22;1254;49.144;8.212;2022-10-31T06:59:25;10.40;99.90
2487;DHT22;1254;49.144;8.212;2022-10-31T07:02:21;10.50;99.90
2487;DHT22;1254;49.144;8.212;2022-10-31T07:04:50;10.50;99.90
2487;DHT22;1254;49.144;8.212;2022-10-31T07:07:18;10.50;99.90
2487;DHT22;1254;49.144;8.212;2022-10-31T07:09:47;10.50;99.90
2487;DHT22;1254;49.144;8.212;2022-10-31T07:12:18;10.60;99.90
2487;DHT22;1254;49.144;8.212;2022-10-31T07:14:55;10.60;99.90
2487;DHT22;1254;49.144;8.212;2022-10-31T07:17:24;10.60;99.90
2487;DHT22;1254;49.144;8.212;2022-10-31T07:19:55;10.80;99.90
2487;DHT22;1254;49.144;8.212;2022-10-31T07:22:23;10.90;99.90
2487;DHT22;1254;49.144;8.212;2022-10-31T07:24:51;10.90;99.90
2487;DHT22;1254;49.144;8.212;2022-10-31T07:27:37;10.90;99.90
2487;DHT22;1254;49.144;8.212;2022-10-31T07:30:09;11.00;99.90
2487;DHT22;1254;49.144;8.212;2022-10-31T07:32:40;11.10;99.90
2487;DHT22;1254;49.144;8.212;2022-10-31T07:35:10;11.40;99.90
2487;DHT22;1254;49.144;8.212;2022-10-31T07:37:51;11.40;99.90
2487;DHT22;1254;49.144;8.212;2022-10-31T07:40:21;11.60;99.90
2487;DHT22;1254;49.144;8.212;2022-10-31T07:42:50;11.80;99.90
2487;DHT22;1254;49.144;8.212;2022-10-31T07:45:38;12.00;99.90
2487;DHT22;1254;49.144;8.212;2022-10-31T07:48:30;12.10;99.90
2487;DHT22;1254;49.144;8.212;2022-10-31T07:51:17;12.30;99.90
2487;DHT22;1254;49.144;8.212;2022-10-31T07:54:11;12.40;99.90
2487;DHT22;1254;49.144;8.212;2022-10-31T07:56:39;12.50;99.90
2487;DHT22;1254;49.144;8.212;2022-10-31T07:59:07;12.60;99.90
2487;DHT22;1254;49.144;8.212;2022-10-31T08:01:36;12.70;99.90
2487;DHT22;1254;49.144;8.212;2022-10-31T08:04:24;12.80;99.90
2487;DHT22;1254;49.144;8.212;2022-10-31T08:07:10;12.80;99.90
2487;DHT22;1254;49.144;8.212;2022-10-31T08:09:43;12.80;99.90
2487;DHT22;1254;49.144;8.212;2022-10-31T08:12:19;12.90;99.90
2487;DHT22;1254;49.144;8.212;2022-10-31T08:14:47;13.00;99.90
2487;DHT22;1254;49.144;8.212;2022-10-31T08:17:18;13.10;99.90
2487;DHT22;1254;49.144;8.212;2022-10-31T08:19:54;13.20;99.90
2487;DHT22;1254;49.144;8.212;2022-10-31T08:22:28;13.30;99.90
2487;DHT22;1254;49.144;8.212;2022-10-31T08:24:56;13.40;99.90
2487;DHT22;1254;49.144;8.212;2022-10-31T08:27:24;13.60;99.90
2487;DHT22;1254;49.144;8.212;2022-10-31T08:29:54;13.60;99.90
2487;DHT22;1254;49.144;8.212;2022-10-31T08:32:23;13.60;99.90
2487;DHT22;1254;49.144;8.212;2022-10-31T08:35:05;13.70;99.90
2487;DHT22;1254;49.144;8.212;2022-10-31T08:37:52;13.80;99.90
2487;DHT22;1254;49.144;8.212;2022-10-31T08:40:21;13.90;99.90
2487;DHT22;1254;49.144;8.212;2022-10-31T08:42:56;14.00;99.90
2487;DHT22;1254;49.144;8.212;2022-10-31T08:45:25;14.20;99.90
2487;DHT22;1254;49.144;8.212;2022-10-31T08:47:56;14.30;99.90
2487;DHT22;1254;49.144;8.212;2022-10-31T08:50:28;14.30;99.90
2487;DHT22;1254;49.144;8.212;2022-10-31T08:53:00;14.30;99.90
2487;DHT22;1254;49.144;8.212;2022-10-31T08:55:29;14.30;99.90
2487;DHT22;1254;49.144;8.212;2022-10-31T08:57:58;14.40;99.90
2487;DHT22;1254;49.144;8.212;2022-10-31T09:00:35;14.40;99.90
2487;DHT22;1254;49.144;8.212;2022-10-31T09:03:12;14.70;99.90
2487;DHT22;1254;49.144;8.212;2022-10-31T09:05:44;14.90;99.90
2487;DHT22;1254;49.144;8.212;2022-10-31T09:08:13;15.00;99.90
2487;DHT22;1254;49.144;8.212;2022-10-31T09:10:41;14.80;99.90
2487;DHT22;1254;49.144;8.212;2022-10-31T09:13:11;14.90;99.90
2487;DHT22;1254;49.144;8.212;2022-10-31T09:16:17;14.90;99.90
2487;DHT22;1254;49.144;8.212;2022-10-31T09:18:45;15.10;99.90
2487;DHT22;1254;49.144;8.212;2022-10-31T09:21:18;15.20;99.90
2487;DHT22;1254;49.144;8.212;2022-10-31T09:23:47;15.20;99.90
2487;DHT22;1254;49.144;8.212;2022-10-31T09:26:15;15.30;99.90
2487;DHT22;1254;49.144;8.212;2022-10-31T09:28:56;15.40;99.90
2487;DHT22;1254;49.144;8.212;2022-10-31T09:31:25;15.30;99.90
2487;DHT22;1254;49.144;8.212;2022-10-31T09:34:10;15.40;99.90
2487;DHT22;1254;49.144;8.212;2022-10-31T09:36:39;15.60;99.90
2487;DHT22;1254;49.144;8.212;2022-10-31T09:39:17;15.70;99.90
2487;DHT22;1254;49.144;8.212;2022-10-31T09:44:51;15.80;99.90
2487;DHT22;1254;49.144;8.212;2022-10-31T09:47:40;16.10;99.90
2487;DHT22;1254;49.144;8.212;2022-10-31T09:50:31;16.30;99.90
2487;DHT22;1254;49.144;8.212;2022-10-31T09:53:23;16.20;99.90
2487;DHT22;1254;49.144;8.212;2022-10-31T09:55:52;16.30;99.90
2487;DHT22;1254;49.144;8.212;2022-10-31T09:58:24;16.70;99.90
2487;DHT22;1254;49.144;8.212;2022-10-31T10:00:54;16.70;99.90
2487;DHT22;1254;49.144;8.212;2022-10-31T10:03:30;16.70;99.90
2487;DHT22;1254;49.144;8.212;2022-10-31T10:06:12;16.60;99.90
2487;DHT22;1254;49.144;8.212;2022-10-31T10:09:02;16.50;99.90
2487;DHT22;1254;49.144;8.212;2022-10-31T10:11:55;16.40;99.90
2487;DHT22;1254;49.144;8.212;2022-10-31T10:14:37;16.60;99.90
2487;DHT22;1254;49.144;8.212;2022-10-31T10:17:18;16.80;99.90
2487;DHT22;1254;49.144;8.212;2022-10-31T10:20:18;16.80;99.90
2487;DHT22;1254;49.144;8.212;2022-10-31T10:22:54;16.70;99.90
2487;DHT22;1254;49.144;8.212;2022-10-31T10:25:31;16.80;99.90
2487;DHT22;1254;49.144;8.212;2022-10-31T10:28:08;16.90;99.90
2487;DHT22;1254;49.144;8.212;2022-10-31T10:30:41;16.90;99.90
2487;DHT22;1254;49.144;8.212;2022-10-31T10:33:12;16.80;99.90
2487;DHT22;1254;49.144;8.212;2022-10-31T10:35:43;16.90;99.90
2487;DHT22;1254;49.144;8.212;2022-10-31T10:38:18;17.00;99.90
2487;DHT22;1254;49.144;8.212;2022-10-31T10:40:50;17.20;99.90
2487;DHT22;1254;49.144;8.212;2022-10-31T10:43:22;17.30;99.90
2487;DHT22;1254;49.144;8.212;2022-10-31T10:45:53;17.20;99.90
2487;DHT22;1254;49.144;8.212;2022-10-31T10:48:45;17.30;99.90
2487;DHT22;1254;49.144;8.212;2022-10-31T10:51:29;17.40;99.90
2487;DHT22;1254;49.144;8.212;2022-10-31T10:54:09;17.60;99.90
2487;DHT22;1254;49.144;8.212;2022-10-31T10:56:49;17.50;99.90
2487;DHT22;1254;49.144;8.212;2022-10-31T10:59:21;17.50;99.90
2487;DHT22;1254;49.144;8.212;2022-10-31T11:01:51;17.50;99.90
2487;DHT22;1254;49.144;8.212;2022-10-31T11:04:30;17.50;99.90
2487;DHT22;1254;49.144;8.212;2022-10-31T11:07:03;17.70;99.90
2487;DHT22;1254;49.144;8.212;2022-10-31T11:09:33;17.90;99.90
2487;DHT22;1254;49.144;8.212;2022-10-31T11:12:07;17.80;99.90
2487;DHT22;1254;49.144;8.212;2022-10-31T11:14:42;17.70;99.90
2487;DHT22;1254;49.144;8.212;2022-10-31T11:17:19;17.60;99.90
2487;DHT22;1254;49.144;8.212;2022-10-31T11:19:48;17.90;99.90
2487;DHT22;1254;49.144;8.212;2022-10-31T11:22:17;17.90;99.90
2487;DHT22;1254;49.144;8.212;2022-10-31T11:24:45;17.70;99.90
2487;DHT22;1254;49.144;8.212;2022-10-31T11:27:16;17.70;99.90
2487;DHT22;1254;49.144;8.212;2022-10-31T11:29:48;17.70;99.90
2487;DHT22;1254;49.144;8.212;2022-10-31T11:32:19;17.60;99.90
2487;DHT22;1254;49.144;8.212;2022-10-31T11:34:50;17.70;99.90
2487;DHT22;1254;49.144;8.212;2022-10-31T11:37:21;17.80;99.90
2487;DHT22;1254;49.144;8.212;2022-10-31T11:39:51;17.70;99.90
2487;DHT22;1254;49.144;8.212;2022-10-31T11:42:24;17.60;99.90
2487;DHT22;1254;49.144;8.212;2022-10-31T11:44:54;17.60;99.90
2487;DHT22;1254;49.144;8.212;2022-10-31T11:47:26;17.70;99.90
2487;DHT22;1254;49.144;8.212;2022-10-31T11:49:55;17.60;99.90
2487;DHT22;1254;49.144;8.212;2022-10-31T11:52:26;17.50;99.90
2487;DHT22;1254;49.144;8.212;2022-10-31T11:54:58;17.80;99.90
2487;DHT22;1254;49.144;8.212;2022-10-31T11:57:29;17.70;99.90
2487;DHT22;1254;49.144;8.212;2022-10-31T11:59:59;17.70;99.90
2487;DHT22;1254;49.144;8.212;2022-10-31T12:02:38;17.70;99.90
2487;DHT22;1254;49.144;8.212;2022-10-31T12:05:10;18.10;99.90
2487;DHT22;1254;49.144;8.212;2022-10-31T12:07:45;18.20;99.90
2487;DHT22;1254;49.144;8.212;2022-10-31T12:10:16;17.90;99.90
2487;DHT22;1254;49.144;8.212;2022-10-31T12:13:08;17.70;99.90
2487;DHT22;1254;49.144;8.212;2022-10-31T12:15:42;17.70;99.90
2487;DHT22;1254;49.144;8.212;2022-10-31T12:18:25;17.80;99.90
2487;DHT22;1254;49.144;8.212;2022-10-31T12:21:09;17.90;99.90
2487;DHT22;1254;49.144;8.212;2022-10-31T12:23:47;18.00;99.90
2487;DHT22;1254;49.144;8.212;2022-10-31T12:26:22;17.80;99.90
2487;DHT22;1254;49.144;8.212;2022-10-31T12:29:11;17.90;99.90
2487;DHT22;1254;49.144;8.212;2022-10-31T12:31:51;17.90;99.90
2487;DHT22;1254;49.144;8.212;2022-10-31T12:34:48;17.90;99.90
2487;DHT22;1254;49.144;8.212;2022-10-31T12:37:30;17.60;99.90
2487;DHT22;1254;49.144;8.212;2022-10-31T12:40:12;17.60;99.90
2487;DHT22;1254;49.144;8.212;2022-10-31T12:42:54;17.80;99.90
2487;DHT22;1254;49.144;8.212;2022-10-31T12:45:36;17.80;99.90
2487;DHT22;1254;49.144;8.212;2022-10-31T12:48:18;17.80;99.90
2487;DHT22;1254;49.144;8.212;2022-10-31T12:50:54;17.80;99.90
2487;DHT22;1254;49.144;8.212;2022-10-31T12:53:36;17.70;99.90
2487;DHT22;1254;49.144;8.212;2022-10-31T12:56:19;17.70;99.90
2487;DHT22;1254;49.144;8.212;2022-10-31T12:58:53;17.80;99.90
2487;DHT22;1254;49.144;8.212;2022-10-31T13:01:26;18.00;99.90
2487;DHT22;1254;49.144;8.212;2022-10-31T13:03:59;18.70;99.90
2487;DHT22;1254;49.144;8.212;2022-10-31T13:06:32;19.80;99.90
2487;DHT22;1254;49.144;8.212;2022-10-31T13:09:05;20.90;99.90
2487;DHT22;1254;49.144;8.212;2022-10-31T13:11:37;22.00;99.90
2487;DHT22;1254;49.144;8.212;2022-10-31T13:14:11;22.20;99.90
2487;DHT22;1254;49.144;8.212;2022-10-31T13:16:46;22.50;99.90
2487;DHT22;1254;49.144;8.212;2022-10-31T13:19:22;23.10;99.90
2487;DHT22;1254;49.144;8.212;2022-10-31T13:21:57;23.10;99.90
2487;DHT22;1254;49.144;8.212;2022-10-31T13:24:31;22.50;99.90
2487;DHT22;1254;49.144;8.212;2022-10-31T13:27:03;22.50;99.90
2487;DHT22;1254;49.144;8.212;2022-10-31T13:29:41;23.20;99.90
2487;DHT22;1254;49.144;8.212;2022-10-31T13:32:11;23.30;99.90
2487;DHT22;1254;49.144;8.212;2022-10-31T13:34:41;23.50;99.90
2487;DHT22;1254;49.144;8.212;2022-10-31T13:37:18;23.50;99.90
2487;DHT22;1254;49.144;8.212;2022-10-31T13:40:04;23.30;99.90
2487;DHT22;1254;49.144;8.212;2022-10-31T13:42:46;23.10;99.90
2487;DHT22;1254;49.144;8.212;2022-10-31T13:45:19;24.10;99.90
2487;DHT22;1254;49.144;8.212;2022-10-31T13:47:57;24.40;99.90
2487;DHT22;1254;49.144;8.212;2022-10-31T13:50:27;24.90;99.90
2487;DHT22;1254;49.144;8.212;2022-10-31T13:53:12;23.50;99.90
2487;DHT22;1254;49.144;8.212;2022-10-31T13:55:42;21.90;99.90
2487;DHT22;1254;49.144;8.212;2022-10-31T13:58:23;20.60;99.90
2487;DHT22;1254;49.144;8.212;2022-10-31T14:01:13;19.90;99.90
2487;DHT22;1254;49.144;8.212;2022-10-31T14:03:45;19.90;99.90
2487;DHT22;1254;49.144;8.212;2022-10-31T14:06:15;20.20;99.90
2487;DHT22;1254;49.144;8.212;2022-10-31T14:08:52;20.70;99.90
2487;DHT22;1254;49.144;8.212;2022-10-31T14:11:23;20.70;99.90
2487;DHT22;1254;49.144;8.212;2022-10-31T14:13:54;20.30;99.90
2487;DHT22;1254;49.144;8.212;2022-10-31T14:16:24;19.70;99.90
2487;DHT22;1254;49.144;8.212;2022-10-31T14:18:59;19.50;99.90
2487;DHT22;1254;49.144;8.212;2022-10-31T14:21:30;19.50;99.90
2487;DHT22;1254;49.144;8.212;2022-10-31T14:23:59;19.50;99.90
2487;DHT22;1254;49.144;8.212;2022-10-31T14:26:33;19.30;99.90
2487;DHT22;1254;49.144;8.212;2022-10-31T14:31:52;18.90;99.90
2487;DHT22;1254;49.144;8.212;2022-10-31T14:34:26;18.70;99.90
2487;DHT22;1254;49.144;8.212;2022-10-31T14:37:32;18.50;99.90
2487;DHT22;1254;49.144;8.212;2022-10-31T14:40:27;18.20;99.90
2487;DHT22;1254;49.144;8.212;2022-10-31T14:43:19;18.10;99.90
2487;DHT22;1254;49.144;8.212;2022-10-31T14:45:56;18.20;99.90
2487;DHT22;1254;49.144;8.212;2022-10-31T14:51:31;18.10;99.90
2487;DHT22;1254;49.144;8.212;2022-10-31T14:54:02;18.00;99.90
2487;DHT22;1254;49.144;8.212;2022-10-31T14:56:35;17.90;99.90
2487;DHT22;1254;49.144;8.212;2022-10-31T14:59:09;17.80;99.90
2487;DHT22;1254;49.144;8.212;2022-10-31T15:01:39;17.60;99.90
2487;DHT22;1254;49.144;8.212;2022-10-31T15:04:18;17.60;99.90
2487;DHT22;1254;49.144;8.212;2022-10-31T15:06:50;17.60;99.90
2487;DHT22;1254;49.144;8.212;2022-10-31T15:09:23;17.60;99.90
2487;DHT22;1254;49.144;8.212;2022-10-31T15:11:51;17.50;99.90
2487;DHT22;1254;49.144;8.212;2022-10-31T15:14:23;17.60;99.90
2487;DHT22;1254;49.144;8.212;2022-10-31T15:16:51;17.60;99.90
2487;DHT22;1254;49.144;8.212;2022-10-31T15:19:23;17.50;99.90
2487;DHT22;1254;49.144;8.212;2022-10-31T15:21:54;17.50;99.90
2487;DHT22;1254;49.144;8.212;2022-10-31T15:24:24;17.50;99.90
2487;DHT22;1254;49.144;8.212;2022-10-31T15:26:53;17.50;99.90
2487;DHT22;1254;49.144;8.212;2022-10-31T15:29:23;17.50;99.90
2487;DHT22;1254;49.144;8.212;2022-10-31T15:31:52;17.40;99.90
2487;DHT22;1254;49.144;8.212;2022-10-31T15:34:24;17.40;99.90
2487;DHT22;1254;49.144;8.212;2022-10-31T15:36:55;17.30;99.90
2487;DHT22;1254;49.144;8.212;2022-10-31T15:39:23;17.20;99.90
2487;DHT22;1254;49.144;8.212;2022-10-31T15:41:52;17.10;99.90
2487;DHT22;1254;49.144;8.212;2022-10-31T15:44:23;17.00;99.90
2487;DHT22;1254;49.144;8.212;2022-10-31T15:46:56;16.90;99.90
2487;DHT22;1254;49.144;8.212;2022-10-31T15:49:32;16.80;99.90
2487;DHT22;1254;49.144;8.212;2022-10-31T15:52:11;16.70;99.90
2487;DHT22;1254;49.144;8.212;2022-10-31T15:54:46;16.60;99.90
2487;DHT22;1254;49.144;8.212;2022-10-31T15:57:14;16.60;99.90
2487;DHT22;1254;49.144;8.212;2022-10-31T15:59:46;16.50;99.90
2487;DHT22;1254;49.144;8.212;2022-10-31T16:02:18;16.40;99.90
2487;DHT22;1254;49.144;8.212;2022-10-31T16:04:52;16.40;99.90
2487;DHT22;1254;49.144;8.212;2022-10-31T16:07:22;16.20;99.90
2487;DHT22;1254;49.144;8.212;2022-10-31T16:09:55;16.20;99.90
2487;DHT22;1254;49.144;8.212;2022-10-31T16:12:25;16.30;99.90
2487;DHT22;1254;49.144;8.212;2022-10-31T16:14:55;16.30;99.90
2487;DHT22;1254;49.144;8.212;2022-10-31T16:17:24;16.20;99.90
2487;DHT22;1254;49.144;8.212;2022-10-31T16:19:56;16.20;99.90
2487;DHT22;1254;49.144;8.212;2022-10-31T16:22:28;16.20;99.90
2487;DHT22;1254;49.144;8.212;2022-10-31T16:25:01;16.10;99.90
2487;DHT22;1254;49.144;8.212;2022-10-31T16:27:33;16.10;99.90
2487;DHT22;1254;49.144;8.212;2022-10-31T16:32:54;16.00;99.90
2487;DHT22;1254;49.144;8.212;2022-10-31T16:35:25;16.00;99.90
2487;DHT22;1254;49.144;8.212;2022-10-31T16:37:55;15.90;99.90
2487;DHT22;1254;49.144;8.212;2022-10-31T16:40:24;15.90;99.90
2487;DHT22;1254;49.144;8.212;2022-10-31T16:42:53;15.80;99.90
2487;DHT22;1254;49.144;8.212;2022-10-31T16:45:22;15.80;99.90
2487;DHT22;1254;49.144;8.212;2022-10-31T16:47:51;15.80;99.90
2487;DHT22;1254;49.144;8.212;2022-10-31T16:50:21;15.70;99.90
2487;DHT22;1254;49.144;8.212;2022-10-31T16:52:50;15.60;99.90
2487;DHT22;1254;49.144;8.212;2022-10-31T16:55:20;15.60;99.90
2487;DHT22;1254;49.144;8.212;2022-10-31T16:57:51;15.50;99.90
2487;DHT22;1254;49.144;8.212;2022-10-31T17:00:22;15.50;99.90
2487;DHT22;1254;49.144;8.212;2022-10-31T17:02:52;15.40;99.90
2487;DHT22;1254;49.144;8.212;2022-10-31T17:05:21;15.40;99.90